createdAt,value
2022-11-02T00:04:27.336Z,17.60
2022-11-02T00:09:08.116Z,18.75
2022-11-02T00:13:52.381Z,16.63
2022-11-02T00:18:37.007Z,16.33
2022-11-02T00:23:21.457Z,15.73
2022-11-02T00:28:06.454Z,10.45
2022-11-02T00:32:51.385Z,10.77
2022-11-02T00:37:35.946Z,15.27
2022-11-02T00:42:21.311Z,12.65
2022-11-02T00:47:06.538Z,13.05
2022-11-02T01:29:38.803Z,10.43
2022-11-02T01:34:23.157Z,14.15
2022-11-02T02:02:19.179Z,16.50
2022-11-02T02:07:04.303Z,14.07
2022-11-02T02:11:49.470Z,16.88
2022-11-02T02:21:47.164Z,14.65
2022-11-02T03:06:48.327Z,20.40
2022-11-02T03:11:32.079Z,19.15
2022-11-02T04:09:00.627Z,15.10
2022-11-02T04:34:29.471Z,15.20
2022-11-02T04:39:15.601Z,13.15
2022-11-02T04:44:00.380Z,10.32
2022-11-02T04:48:45.379Z,13.48
2022-11-02T04:53:30.504Z,16.42
2022-11-02T05:18:00.303Z,21.38
2022-11-02T05:22:45.376Z,12.30
2022-11-02T05:27:31.245Z,16.98
2022-11-02T05:32:15.094Z,12.15
2022-11-02T05:36:55.903Z,11.48
2022-11-02T05:41:42.792Z,12.20
2022-11-02T06:29:31.855Z,11.93
2022-11-02T06:34:17.661Z,14.73
2022-11-02T06:38:58.834Z,15.65
2022-11-02T06:43:43.358Z,28.65
2022-11-02T06:48:31.501Z,12.13
2022-11-02T06:53:13.781Z,10.38
2022-11-02T06:57:58.630Z,14.80
2022-11-02T07:02:43.598Z,16.10
2022-11-02T07:07:28.369Z,11.20
2022-11-02T07:35:30.912Z,21.73
2022-11-02T07:40:15.564Z,20.17
2022-11-02T07:50:09.778Z,17.30
2022-11-02T07:54:54.701Z,23.05
2022-11-02T07:59:39.847Z,22.15
2022-11-02T08:04:24.721Z,23.33
2022-11-02T08:09:09.705Z,21.88
2022-11-02T08:13:54.598Z,21.50
2022-11-02T08:18:39.776Z,21.98
2022-11-02T08:23:24.754Z,21.42
2022-11-02T08:28:09.115Z,21.25
2022-11-02T08:37:44.322Z,24.90
2022-11-02T08:42:28.271Z,20.77
2022-11-02T09:15:29.586Z,18.73
2022-11-02T09:20:14.603Z,22.77
2022-11-02T09:24:59.338Z,17.48
2022-11-02T09:29:43.581Z,16.73
2022-11-02T09:38:53.483Z,21.92
2022-11-02T10:00:23.935Z,15.35
2022-11-02T10:05:08.332Z,14.05
2022-11-02T10:09:53.701Z,18.60
2022-11-02T10:14:38.409Z,14.02
2022-11-02T10:19:27.763Z,8.23
2022-11-02T10:48:12.402Z,10.82
2022-11-02T10:53:08.948Z,8.05
2022-11-02T12:12:05.584Z,4.13
2022-11-02T12:52:34.831Z,6.40
2022-11-02T12:57:19.607Z,6.93
2022-11-02T13:06:49.860Z,5.55
2022-11-02T13:11:34.583Z,5.82
2022-11-02T13:16:19.770Z,6.63
2022-11-02T13:21:03.730Z,4.50
2022-11-02T13:25:48.896Z,10.27
2022-11-02T13:30:33.595Z,7.50
2022-11-02T13:35:18.583Z,4.38
2022-11-02T14:25:29.780Z,8.30
2022-11-02T15:04:28.871Z,10.82
2022-11-02T15:09:13.797Z,9.60
2022-11-02T15:13:59.183Z,11.20
2022-11-02T15:18:43.932Z,10.77
2022-11-02T15:23:31.700Z,11.00
2022-11-02T16:14:21.498Z,10.65
2022-11-02T16:19:06.057Z,9.70
2022-11-02T16:23:53.012Z,10.40
2022-11-02T16:28:37.735Z,10.43
2022-11-02T16:33:22.619Z,11.52
2022-11-02T16:38:13.051Z,14.02
2022-11-02T16:42:57.738Z,13.73
2022-11-02T17:02:47.724Z,11.82
2022-11-02T18:13:44.255Z,8.80
2022-11-02T18:18:28.701Z,6.78
2022-11-02T18:23:13.616Z,14.90
2022-11-02T18:27:59.096Z,10.05
2022-11-02T19:00:36.727Z,15.13
2022-11-02T19:10:05.370Z,13.10
2022-11-02T19:14:51.535Z,17.23
2022-11-02T19:39:39.635Z,15.38
2022-11-02T19:49:14.343Z,16.55
2022-11-02T20:10:30.422Z,23.85
2022-11-02T20:15:16.123Z,20.92
2022-11-02T20:20:02.092Z,15.38
2022-11-02T20:24:47.522Z,16.00
2022-11-02T20:29:32.674Z,16.30
2022-11-02T21:15:39.792Z,12.88
2022-11-02T21:20:40.216Z,14.90
2022-11-02T21:34:16.808Z,18.13
2022-11-02T21:39:00.896Z,14.60
2022-11-02T21:43:44.984Z,13.13
2022-11-02T21:57:32.407Z,25.90
2022-11-02T22:02:17.218Z,15.55
2022-11-02T22:30:15.539Z,15.57
2022-11-02T23:44:19.947Z,16.70
2022-11-02T23:48:53.726Z,15.43
2022-11-02T23:58:33.047Z,18.70
